createdAt,value
2022-12-03T00:00:31.419Z,74.80
2022-12-03T00:02:58.479Z,74.56
2022-12-03T00:05:25.619Z,74.09
2022-12-03T00:07:52.612Z,73.94
2022-12-03T00:10:20.179Z,73.81
2022-12-03T00:12:47.303Z,73.59
2022-12-03T00:15:14.385Z,73.69
2022-12-03T00:17:41.352Z,73.53
2022-12-03T00:20:09.560Z,73.59
2022-12-03T00:22:36.322Z,73.64
2022-12-03T00:25:04.171Z,73.67
2022-12-03T00:27:30.881Z,73.92
2022-12-03T00:29:57.812Z,74.04
2022-12-03T00:32:24.739Z,74.24
2022-12-03T00:34:52.042Z,74.40
2022-12-03T00:37:19.441Z,74.55
2022-12-03T00:39:46.502Z,74.41
2022-12-03T00:42:13.503Z,74.04
2022-12-03T00:44:40.482Z,73.92
2022-12-03T00:47:07.502Z,73.83
2022-12-03T00:49:34.542Z,73.64
2022-12-03T00:52:02.041Z,73.76
2022-12-03T00:54:32.084Z,73.72
2022-12-03T00:56:59.486Z,73.57
2022-12-03T00:59:26.482Z,73.40
2022-12-03T01:01:53.584Z,73.18
2022-12-03T01:04:20.750Z,73.04
2022-12-03T01:06:47.861Z,73.33
2022-12-03T01:09:14.882Z,73.37
2022-12-03T01:11:42.041Z,73.52
2022-12-03T01:14:12.762Z,73.82
2022-12-03T01:16:40.443Z,73.66
2022-12-03T01:19:09.124Z,73.30
2022-12-03T01:21:36.562Z,73.70
2022-12-03T01:24:04.584Z,73.61
2022-12-03T01:26:31.581Z,74.01
2022-12-03T01:28:58.601Z,73.76
2022-12-03T01:31:44.418Z,73.96
2022-12-03T01:34:11.583Z,73.96
2022-12-03T01:36:38.541Z,73.74
2022-12-03T01:39:05.602Z,74.09
2022-12-03T01:41:34.404Z,74.03
2022-12-03T01:44:02.703Z,74.02
2022-12-03T01:46:37.821Z,73.87
2022-12-03T01:49:05.221Z,73.67
2022-12-03T01:51:32.403Z,73.72
2022-12-03T01:54:02.105Z,73.92
2022-12-03T01:56:29.143Z,73.81
2022-12-03T01:58:56.281Z,74.29
2022-12-03T02:01:23.400Z,74.27
2022-12-03T02:03:50.546Z,74.31
2022-12-03T02:06:20.341Z,74.33
2022-12-03T02:08:48.701Z,73.63
2022-12-03T02:11:18.381Z,73.86
2022-12-03T02:13:46.242Z,73.67
2022-12-03T02:16:14.123Z,73.96
2022-12-03T02:18:41.764Z,73.90
2022-12-03T02:21:23.601Z,74.17
2022-12-03T02:24:09.243Z,74.15
2022-12-03T02:26:36.423Z,74.07
2022-12-03T02:29:04.526Z,74.14
2022-12-03T02:31:31.891Z,74.28
2022-12-03T02:33:59.081Z,74.30
2022-12-03T02:36:26.421Z,74.57
2022-12-03T02:38:53.461Z,74.08
2022-12-03T02:41:39.683Z,74.42
2022-12-03T02:44:08.365Z,74.13
2022-12-03T02:46:35.957Z,74.11
2022-12-03T02:49:05.102Z,74.04
2022-12-03T02:51:33.802Z,73.86
2022-12-03T02:54:01.302Z,73.92
2022-12-03T02:56:32.701Z,73.99
2022-12-03T02:59:03.406Z,73.88
2022-12-03T03:01:30.600Z,74.25
2022-12-03T03:03:58.662Z,74.42
2022-12-03T03:06:25.721Z,74.35
2022-12-03T03:08:53.101Z,74.29
2022-12-03T03:11:20.223Z,74.63
2022-12-03T03:13:47.382Z,74.74
2022-12-03T03:16:14.748Z,74.37
2022-12-03T03:18:42.405Z,74.98
2022-12-03T03:21:09.443Z,74.56
2022-12-03T03:23:36.582Z,75.17
2022-12-03T03:26:12.661Z,75.03
2022-12-03T03:28:44.335Z,75.51
2022-12-03T03:31:14.264Z,74.98
2022-12-03T03:33:44.363Z,75.07
2022-12-03T03:36:13.182Z,75.04
2022-12-03T03:38:41.282Z,74.85
2022-12-03T03:41:09.862Z,74.88
2022-12-03T03:43:38.562Z,75.06
2022-12-03T03:46:07.094Z,75.01
2022-12-03T03:48:35.627Z,75.43
2022-12-03T03:51:09.041Z,75.33
2022-12-03T03:53:40.982Z,75.45
2022-12-03T03:56:09.861Z,75.44
2022-12-03T03:58:38.065Z,74.88
2022-12-03T04:01:05.057Z,74.99
2022-12-03T04:03:32.242Z,74.68
2022-12-03T04:05:59.263Z,74.77
2022-12-03T04:08:26.249Z,74.92
2022-12-03T04:11:12.165Z,75.13
2022-12-03T04:13:39.261Z,74.89
2022-12-03T04:16:06.398Z,74.87
2022-12-03T04:18:45.484Z,74.65
2022-12-03T04:21:33.710Z,74.79
2022-12-03T04:24:01.568Z,74.74
2022-12-03T04:26:47.062Z,74.69
2022-12-03T04:29:18.044Z,74.25
2022-12-03T04:32:03.731Z,74.20
2022-12-03T04:34:49.741Z,73.75
2022-12-03T04:37:16.784Z,74.07
2022-12-03T04:39:43.871Z,73.98
2022-12-03T04:42:10.923Z,73.59
2022-12-03T04:44:38.249Z,73.86
2022-12-03T04:47:17.742Z,73.92
2022-12-03T04:49:50.303Z,74.09
2022-12-03T04:52:19.615Z,73.98
2022-12-03T04:54:46.942Z,74.20
2022-12-03T04:57:14.008Z,74.11
2022-12-03T04:59:41.481Z,74.09
2022-12-03T05:02:09.416Z,73.89
2022-12-03T05:04:36.483Z,74.04
2022-12-03T05:07:03.804Z,74.14
2022-12-03T05:09:32.744Z,73.93
2022-12-03T05:11:59.784Z,74.18
2022-12-03T05:14:26.861Z,74.09
2022-12-03T05:16:53.873Z,74.62
2022-12-03T05:19:21.126Z,74.32
2022-12-03T05:21:48.407Z,74.33
2022-12-03T05:24:15.526Z,74.38
2022-12-03T05:26:42.768Z,74.52
2022-12-03T05:29:10.009Z,74.87
2022-12-03T05:31:37.166Z,74.88
2022-12-03T05:34:04.489Z,75.23
2022-12-03T05:36:31.813Z,75.50
2022-12-03T05:38:59.010Z,75.38
2022-12-03T05:41:44.894Z,75.46
2022-12-03T05:44:15.089Z,75.13
2022-12-03T05:46:46.203Z,75.26
2022-12-03T05:49:13.575Z,75.42
2022-12-03T05:51:40.806Z,74.98
2022-12-03T05:54:07.930Z,75.19
2022-12-03T05:56:35.167Z,75.00
2022-12-03T05:59:02.208Z,74.42
2022-12-03T06:01:29.447Z,74.21
2022-12-03T06:03:56.609Z,74.23
2022-12-03T06:06:23.846Z,73.98
2022-12-03T06:08:51.006Z,74.26
2022-12-03T06:11:18.089Z,73.87
2022-12-03T06:13:45.368Z,74.23
2022-12-03T06:16:12.825Z,74.08
2022-12-03T06:18:40.046Z,74.01
2022-12-03T06:21:07.330Z,73.60
2022-12-03T06:23:34.456Z,73.60
2022-12-03T06:26:01.686Z,73.75
2022-12-03T06:28:28.888Z,73.85
2022-12-03T06:30:56.287Z,74.11
2022-12-03T06:33:23.486Z,74.00
2022-12-03T06:35:50.769Z,73.92
2022-12-03T06:38:17.889Z,73.75
2022-12-03T06:40:45.009Z,73.58
2022-12-03T06:43:12.127Z,73.41
2022-12-03T06:45:42.109Z,73.97
2022-12-03T06:48:11.886Z,74.18
2022-12-03T06:50:39.047Z,74.34
2022-12-03T06:53:06.288Z,74.72
2022-12-03T06:55:33.449Z,75.01
2022-12-03T06:58:00.687Z,74.93
2022-12-03T07:00:27.810Z,74.55
2022-12-03T07:02:55.071Z,74.09
2022-12-03T07:05:22.376Z,74.01
2022-12-03T07:07:52.439Z,74.16
2022-12-03T07:10:19.807Z,73.91
2022-12-03T07:12:47.126Z,73.72
2022-12-03T07:15:14.287Z,74.47
2022-12-03T07:17:41.415Z,74.36
2022-12-03T07:20:09.300Z,73.97
2022-12-03T07:22:36.407Z,74.41
2022-12-03T07:25:03.649Z,74.77
2022-12-03T07:27:30.811Z,74.94
2022-12-03T07:29:57.847Z,74.74
2022-12-03T07:32:24.966Z,75.08
2022-12-03T07:34:52.222Z,75.10
2022-12-03T07:37:23.111Z,74.84
2022-12-03T07:39:52.809Z,75.13
2022-12-03T07:42:19.846Z,75.30
2022-12-03T07:44:46.927Z,76.11
2022-12-03T07:47:14.011Z,75.73
2022-12-03T07:49:41.328Z,75.96
2022-12-03T07:52:08.576Z,76.04
2022-12-03T07:54:35.735Z,75.90
2022-12-03T07:57:02.742Z,75.86
2022-12-03T07:59:30.133Z,75.54
2022-12-03T08:01:57.140Z,75.35
2022-12-03T08:04:24.249Z,75.71
2022-12-03T08:06:51.327Z,75.90
2022-12-03T08:09:18.447Z,75.69
2022-12-03T08:11:48.730Z,75.29
2022-12-03T08:14:20.937Z,75.39
2022-12-03T08:16:48.595Z,75.05
2022-12-03T08:19:18.051Z,75.19
2022-12-03T08:21:46.127Z,75.33
2022-12-03T08:24:14.979Z,75.33
2022-12-03T08:26:44.573Z,75.10
2022-12-03T08:29:15.087Z,74.73
2022-12-03T08:31:43.134Z,74.65
2022-12-03T08:34:19.887Z,74.66
2022-12-03T08:36:48.808Z,74.64
2022-12-03T08:39:18.651Z,75.05
2022-12-03T08:42:07.943Z,75.03
2022-12-03T08:44:41.223Z,75.22
2022-12-03T08:47:17.369Z,75.04
2022-12-03T08:49:51.806Z,75.02
2022-12-03T08:52:27.058Z,75.73
2022-12-03T08:54:56.479Z,75.44
2022-12-03T08:57:31.932Z,75.77
2022-12-03T09:00:18.849Z,75.74
2022-12-03T09:02:50.250Z,75.71
2022-12-03T09:05:21.806Z,76.00
2022-12-03T09:07:49.204Z,75.92
2022-12-03T09:10:16.411Z,76.07
2022-12-03T09:12:43.611Z,75.67
2022-12-03T09:15:11.144Z,75.28
2022-12-03T09:17:38.373Z,75.22
2022-12-03T09:20:06.821Z,75.31
2022-12-03T09:22:33.926Z,74.94
2022-12-03T09:25:01.090Z,74.73
2022-12-03T09:27:28.176Z,75.03
2022-12-03T09:29:55.287Z,75.18
2022-12-03T09:32:22.489Z,75.29
2022-12-03T09:34:49.648Z,74.77
2022-12-03T09:37:16.888Z,74.87
2022-12-03T09:39:44.120Z,74.77
2022-12-03T09:42:11.850Z,74.52
2022-12-03T09:44:38.967Z,74.37
2022-12-03T09:47:06.448Z,74.37
2022-12-03T09:49:36.688Z,74.33
2022-12-03T09:52:05.887Z,74.22
2022-12-03T09:54:34.047Z,74.16
2022-12-03T09:57:03.927Z,74.16
2022-12-03T09:59:33.048Z,73.47
2022-12-03T10:02:01.430Z,73.94
2022-12-03T10:04:29.397Z,73.28
2022-12-03T10:06:58.952Z,73.02
2022-12-03T10:09:29.121Z,73.30
2022-12-03T10:11:59.059Z,73.20
2022-12-03T10:14:26.868Z,73.07
2022-12-03T10:16:54.235Z,73.23
2022-12-03T10:19:28.614Z,72.75
2022-12-03T10:21:56.094Z,73.00
2022-12-03T10:24:32.567Z,72.88
2022-12-03T10:27:04.395Z,72.57
2022-12-03T10:29:34.954Z,72.85
2022-12-03T10:32:08.248Z,72.79
2022-12-03T10:34:38.287Z,73.47
2022-12-03T10:37:11.408Z,73.29
2022-12-03T10:40:08.476Z,73.29
2022-12-03T10:42:41.006Z,72.81
2022-12-03T10:45:19.539Z,73.03
2022-12-03T10:48:07.288Z,72.87
2022-12-03T10:50:35.006Z,73.11
2022-12-03T10:53:02.248Z,73.34
2022-12-03T10:55:40.007Z,73.07
2022-12-03T10:58:16.447Z,72.49
2022-12-03T11:00:43.551Z,72.60
2022-12-03T11:03:19.860Z,72.34
2022-12-03T11:05:47.328Z,72.83
2022-12-03T11:08:21.087Z,72.37
2022-12-03T11:11:07.500Z,72.43
2022-12-03T11:13:34.773Z,72.42
2022-12-03T11:16:03.744Z,72.14
2022-12-03T11:18:37.047Z,72.21
2022-12-03T11:21:04.136Z,72.31
2022-12-03T11:23:49.167Z,72.17
2022-12-03T11:26:39.208Z,72.15
2022-12-03T11:29:15.047Z,71.82
2022-12-03T11:31:47.796Z,72.10
2022-12-03T11:34:21.058Z,72.17
2022-12-03T11:37:09.730Z,72.76
2022-12-03T11:39:52.737Z,73.05
2022-12-03T11:42:25.998Z,73.09
2022-12-03T11:45:04.968Z,73.58
2022-12-03T11:47:34.817Z,73.65
2022-12-03T11:50:02.542Z,73.72
2022-12-03T11:52:41.927Z,73.35
2022-12-03T11:55:14.687Z,72.86
2022-12-03T11:57:43.652Z,73.12
2022-12-03T12:00:16.547Z,72.94
2022-12-03T12:13:41.408Z,74.91
2022-12-03T12:16:09.075Z,75.62
2022-12-03T12:18:45.926Z,75.38
2022-12-03T12:21:44.969Z,75.39
2022-12-03T12:24:43.808Z,75.27
2022-12-03T12:27:14.575Z,74.33
2022-12-03T12:29:44.408Z,74.09
2022-12-03T12:32:17.537Z,73.27
2022-12-03T12:34:50.568Z,73.10
2022-12-03T12:37:30.288Z,72.54
2022-12-03T12:39:58.127Z,72.69
2022-12-03T12:42:38.006Z,72.58
2022-12-03T12:45:07.847Z,72.60
2022-12-03T12:47:37.847Z,72.13
2022-12-03T12:50:12.104Z,71.92
2022-12-03T12:52:49.811Z,71.91
2022-12-03T12:55:17.687Z,71.40
2022-12-03T12:57:45.006Z,71.00
2022-12-03T13:00:18.534Z,71.01
2022-12-03T13:02:54.747Z,70.91
2022-12-03T13:05:21.983Z,70.86
2022-12-03T13:07:49.504Z,71.01
2022-12-03T13:10:24.967Z,71.23
2022-12-03T13:12:52.167Z,71.28
2022-12-03T13:15:50.517Z,70.77
2022-12-03T13:18:34.328Z,71.22
2022-12-03T13:21:12.608Z,71.19
2022-12-03T13:23:40.367Z,70.83
2022-12-03T13:26:42.774Z,70.69
2022-12-03T13:29:14.454Z,71.05
2022-12-03T13:31:47.390Z,71.01
2022-12-03T13:34:21.968Z,71.10
2022-12-03T13:36:56.975Z,71.70
2022-12-03T13:39:30.406Z,71.36
2022-12-03T13:42:20.768Z,71.68
2022-12-03T13:44:50.169Z,71.74
2022-12-03T13:47:21.007Z,71.69
2022-12-03T13:49:58.457Z,71.59
2022-12-03T13:52:26.528Z,71.80
2022-12-03T13:54:56.975Z,72.34
2022-12-03T13:57:24.297Z,72.14
2022-12-03T13:59:51.583Z,72.14
2022-12-03T14:02:19.126Z,71.93
2022-12-03T14:04:46.127Z,71.75
2022-12-03T14:07:13.166Z,71.95
2022-12-03T14:09:42.428Z,71.62
2022-12-03T14:12:27.886Z,71.80
2022-12-03T14:14:55.328Z,72.18
2022-12-03T14:17:22.406Z,72.04
2022-12-03T14:19:50.176Z,72.23
2022-12-03T14:22:19.143Z,72.28
2022-12-03T14:24:46.446Z,71.98
2022-12-03T14:27:13.447Z,72.29
2022-12-03T14:29:40.494Z,72.35
2022-12-03T14:32:07.552Z,72.05
2022-12-03T14:34:34.888Z,72.23
2022-12-03T14:37:02.086Z,71.92
2022-12-03T14:39:29.326Z,72.10
2022-12-03T14:42:14.287Z,72.32
2022-12-03T14:44:42.806Z,72.25
2022-12-03T14:47:10.406Z,72.21
2022-12-03T14:49:37.814Z,71.93
2022-12-03T14:52:08.599Z,72.04
2022-12-03T14:54:42.897Z,71.90
2022-12-03T14:57:12.887Z,71.69
2022-12-03T14:59:41.776Z,71.76
2022-12-03T15:02:10.379Z,71.81
2022-12-03T15:04:39.211Z,72.19
2022-12-03T15:07:06.686Z,72.25
2022-12-03T15:09:34.135Z,72.63
2022-12-03T15:12:04.529Z,72.33
2022-12-03T15:14:31.659Z,72.63
2022-12-03T15:16:58.964Z,72.54
2022-12-03T15:19:26.453Z,72.85
2022-12-03T15:21:53.649Z,72.71
2022-12-03T15:24:21.006Z,72.60
2022-12-03T15:26:48.250Z,72.70
2022-12-03T15:29:15.612Z,72.88
2022-12-03T15:31:42.800Z,72.93
2022-12-03T15:34:11.126Z,73.47
2022-12-03T15:36:38.535Z,73.06
2022-12-03T15:39:05.815Z,73.26
2022-12-03T15:41:33.128Z,73.28
2022-12-03T15:44:04.737Z,72.96
2022-12-03T15:46:32.009Z,73.34
2022-12-03T15:48:59.487Z,72.73
2022-12-03T15:51:26.649Z,72.93
2022-12-03T15:53:53.966Z,72.83
2022-12-03T15:56:22.769Z,72.71
2022-12-03T15:58:49.968Z,73.08
2022-12-03T16:01:18.631Z,72.86
2022-12-03T16:03:45.981Z,73.09
2022-12-03T16:06:15.207Z,73.23
2022-12-03T16:08:42.290Z,73.55
2022-12-03T16:11:09.487Z,73.40
2022-12-03T16:13:36.621Z,73.22
2022-12-03T16:16:03.777Z,72.81
2022-12-03T16:18:31.127Z,72.92
2022-12-03T16:20:58.286Z,73.07
2022-12-03T16:23:25.530Z,72.67
2022-12-03T16:25:52.646Z,72.86
2022-12-03T16:28:19.701Z,73.20
2022-12-03T16:30:46.872Z,73.20
2022-12-03T16:33:14.087Z,73.42
2022-12-03T16:35:41.287Z,73.36
2022-12-03T16:38:08.406Z,73.32
2022-12-03T16:40:35.447Z,73.11
2022-12-03T16:43:04.607Z,73.04
2022-12-03T16:45:50.505Z,73.28
2022-12-03T16:48:19.047Z,73.24
2022-12-03T16:50:46.287Z,73.55
2022-12-03T16:53:14.855Z,73.65
2022-12-03T16:55:42.007Z,73.65
2022-12-03T16:58:09.287Z,73.72
2022-12-03T17:00:36.448Z,73.97
2022-12-03T17:03:03.903Z,73.71
2022-12-03T17:05:31.408Z,73.39
2022-12-03T17:07:58.800Z,73.37
2022-12-03T17:10:26.151Z,73.45
2022-12-03T17:13:10.063Z,73.87
2022-12-03T17:15:39.015Z,73.42
2022-12-03T17:18:07.250Z,73.08
2022-12-03T17:20:36.247Z,73.27
2022-12-03T17:23:03.887Z,73.05
2022-12-03T17:25:31.529Z,73.28
2022-12-03T17:27:58.647Z,73.27
2022-12-03T17:30:25.889Z,73.21
2022-12-03T17:32:53.087Z,73.17
2022-12-03T17:35:20.288Z,73.15
2022-12-03T17:37:47.447Z,73.71
2022-12-03T17:40:15.369Z,73.99
2022-12-03T17:42:42.529Z,74.50
2022-12-03T17:45:10.210Z,74.70
2022-12-03T17:47:37.448Z,74.60
2022-12-03T17:50:05.849Z,74.61
2022-12-03T17:52:32.968Z,74.69
2022-12-03T17:55:23.985Z,74.35
2022-12-03T17:57:47.407Z,73.84
2022-12-03T18:00:14.889Z,73.76
2022-12-03T18:02:42.533Z,73.06
2022-12-03T18:05:10.012Z,73.08
2022-12-03T18:07:37.282Z,73.09
2022-12-03T18:10:04.900Z,72.98
2022-12-03T18:12:32.174Z,73.11
2022-12-03T18:14:59.447Z,73.09
2022-12-03T18:17:26.730Z,73.24
2022-12-03T18:19:54.235Z,73.16
2022-12-03T18:22:21.735Z,73.50
2022-12-03T18:24:51.901Z,73.57
2022-12-03T18:27:21.649Z,73.22
2022-12-03T18:29:48.927Z,73.51
2022-12-03T18:32:28.431Z,73.26
2022-12-03T18:34:57.412Z,73.20
2022-12-03T18:37:29.211Z,73.18
2022-12-03T18:39:57.843Z,73.19
2022-12-03T18:42:25.730Z,73.45
2022-12-03T18:44:55.767Z,73.30
2022-12-03T18:47:25.714Z,73.01
2022-12-03T18:49:53.607Z,73.08
2022-12-03T18:52:22.887Z,72.67
2022-12-03T18:54:50.129Z,72.59
2022-12-03T18:57:17.851Z,72.76
2022-12-03T18:59:45.167Z,72.88
2022-12-03T19:02:38.976Z,72.68
2022-12-03T19:05:05.848Z,73.15
2022-12-03T19:07:32.924Z,73.24
2022-12-03T19:10:00.247Z,73.36
2022-12-03T19:12:27.526Z,73.40
2022-12-03T19:14:54.811Z,73.10
2022-12-03T19:17:22.086Z,73.30
2022-12-03T19:19:49.288Z,73.09
2022-12-03T19:22:16.527Z,73.32
2022-12-03T19:24:44.207Z,73.11
2022-12-03T19:27:11.609Z,73.04
2022-12-03T19:29:38.887Z,73.13
2022-12-03T19:32:06.216Z,73.36
2022-12-03T19:34:33.847Z,73.63
2022-12-03T19:37:01.007Z,73.40
2022-12-03T19:39:28.287Z,73.10
2022-12-03T19:41:55.366Z,73.16
2022-12-03T19:44:22.606Z,73.24
2022-12-03T19:46:50.531Z,73.47
2022-12-03T19:49:21.109Z,72.92
2022-12-03T19:51:49.006Z,73.00
2022-12-03T19:54:16.526Z,73.16
2022-12-03T19:56:44.487Z,72.96
2022-12-03T19:59:13.169Z,73.29
2022-12-03T20:01:41.080Z,73.52
2022-12-03T20:04:09.050Z,73.46
2022-12-03T20:06:39.298Z,73.86
2022-12-03T20:09:12.654Z,74.25
2022-12-03T20:11:41.726Z,74.41
2022-12-03T20:14:12.691Z,74.45
2022-12-03T20:16:40.179Z,74.76
2022-12-03T20:19:10.249Z,74.69
2022-12-03T20:21:38.487Z,74.65
2022-12-03T20:24:07.246Z,74.72
2022-12-03T20:26:34.774Z,74.45
2022-12-03T20:29:02.206Z,74.50
2022-12-03T20:31:31.292Z,74.46
2022-12-03T20:34:01.767Z,74.30
2022-12-03T20:36:31.926Z,74.47
2022-12-03T20:39:07.166Z,74.26
2022-12-03T20:41:38.047Z,73.82
2022-12-03T20:44:07.720Z,74.23
2022-12-03T20:46:35.156Z,74.44
2022-12-03T20:49:02.687Z,74.40
2022-12-03T20:51:31.088Z,74.55
2022-12-03T20:54:00.486Z,74.13
2022-12-03T20:56:33.889Z,74.53
2022-12-03T20:59:05.732Z,74.56
2022-12-03T21:01:33.896Z,74.54
2022-12-03T21:04:01.087Z,74.85
2022-12-03T21:06:30.195Z,75.08
2022-12-03T21:08:59.060Z,75.06
2022-12-03T21:11:30.023Z,74.97
2022-12-03T21:13:58.686Z,74.74
2022-12-03T21:17:05.741Z,74.87
2022-12-03T21:19:20.567Z,74.88
2022-12-03T21:21:47.767Z,74.79
2022-12-03T21:24:15.246Z,75.12
2022-12-03T21:26:42.412Z,74.90
2022-12-03T21:29:09.969Z,74.59
2022-12-03T21:31:38.647Z,74.95
2022-12-03T21:34:06.011Z,74.52
2022-12-03T21:36:33.168Z,74.69
2022-12-03T21:39:00.621Z,74.26
2022-12-03T21:41:28.008Z,74.33
2022-12-03T21:43:55.210Z,74.54
2022-12-03T21:47:10.720Z,74.00
2022-12-03T21:49:09.887Z,74.24
2022-12-03T21:51:37.207Z,74.36
2022-12-03T21:54:04.367Z,74.28
2022-12-03T21:56:32.246Z,74.46
2022-12-03T21:58:59.577Z,74.43
2022-12-03T22:01:26.811Z,74.35
2022-12-03T22:03:54.088Z,74.74
2022-12-03T22:06:22.046Z,74.33
2022-12-03T22:08:49.650Z,74.56
2022-12-03T22:11:20.806Z,74.33
2022-12-03T22:13:48.332Z,74.33
2022-12-03T22:16:18.694Z,74.18
2022-12-03T22:18:46.532Z,73.77
2022-12-03T22:21:17.208Z,73.95
2022-12-03T22:23:44.970Z,73.65
2022-12-03T22:26:14.810Z,73.59
2022-12-03T22:28:50.011Z,73.51
2022-12-03T22:31:18.712Z,73.77
2022-12-03T22:33:48.675Z,73.64
2022-12-03T22:36:20.994Z,73.85
2022-12-03T22:38:50.742Z,73.52
2022-12-03T22:41:19.449Z,73.70
2022-12-03T22:43:47.448Z,73.54
2022-12-03T22:46:15.355Z,73.58
2022-12-03T22:48:44.167Z,73.74
2022-12-03T22:51:23.809Z,73.66
2022-12-03T22:53:56.288Z,73.49
2022-12-03T22:56:24.368Z,73.71
2022-12-03T22:58:51.687Z,73.46
2022-12-03T23:01:28.252Z,73.50
2022-12-03T23:03:56.155Z,73.67
2022-12-03T23:06:24.287Z,73.46
2022-12-03T23:08:51.649Z,73.46
2022-12-03T23:11:19.248Z,73.26
2022-12-03T23:13:46.650Z,73.20
2022-12-03T23:16:17.150Z,73.44
2022-12-03T23:18:44.807Z,73.20
2022-12-03T23:21:17.807Z,73.30
2022-12-03T23:23:45.087Z,73.63
2022-12-03T23:26:14.328Z,73.40
2022-12-03T23:28:43.367Z,73.37
2022-12-03T23:31:29.804Z,73.25
2022-12-03T23:33:58.318Z,73.26
2022-12-03T23:36:27.289Z,73.35
2022-12-03T23:38:54.695Z,73.22
2022-12-03T23:41:23.808Z,73.55
2022-12-03T23:43:51.286Z,73.40
2022-12-03T23:46:22.681Z,73.30
2022-12-03T23:48:51.090Z,73.54
2022-12-03T23:51:19.850Z,73.17
2022-12-03T23:53:47.297Z,73.54
2022-12-03T23:56:18.411Z,73.20
2022-12-03T23:58:46.733Z,73.12
